createdAt,value
2022-10-05T00:01:45.406Z,5.18
2022-10-05T00:04:33.635Z,5.05
2022-10-05T00:07:15.537Z,3.13
2022-10-05T00:09:47.929Z,3.00
2022-10-05T00:12:18.259Z,2.53
2022-10-05T00:14:52.475Z,2.95
2022-10-05T00:17:27.000Z,3.13
2022-10-05T00:20:02.449Z,2.55
2022-10-05T00:22:35.775Z,2.13
2022-10-05T00:25:38.415Z,2.70
2022-10-05T00:31:25.166Z,5.97
2022-10-05T00:34:03.425Z,3.75
2022-10-05T00:36:39.785Z,2.97
2022-10-05T00:39:15.845Z,3.53
2022-10-05T00:42:02.962Z,2.78
2022-10-05T00:45:04.873Z,3.80
2022-10-05T00:47:52.342Z,2.50
2022-10-05T00:51:06.012Z,4.40
2022-10-05T00:54:05.256Z,4.72
2022-10-05T00:57:18.830Z,3.33
2022-10-05T01:00:08.739Z,4.40
2022-10-05T01:03:00.298Z,3.13
2022-10-05T01:05:53.489Z,4.07
2022-10-05T01:08:49.980Z,5.47
2022-10-05T01:11:33.478Z,2.72
2022-10-05T01:14:23.651Z,3.63
2022-10-05T01:17:20.813Z,2.95
2022-10-05T01:20:32.134Z,5.68
2022-10-05T01:23:39.897Z,6.47
2022-10-05T01:26:40.421Z,3.35
2022-10-05T01:29:21.610Z,3.47
2022-10-05T01:32:03.427Z,4.25
2022-10-05T01:34:43.448Z,3.55
2022-10-05T01:37:32.204Z,2.78
2022-10-05T01:40:12.029Z,4.32
2022-10-05T01:43:09.141Z,3.65
2022-10-05T01:45:58.121Z,3.15
2022-10-05T01:48:42.064Z,4.65
2022-10-05T01:51:31.021Z,4.85
2022-10-05T01:54:14.006Z,3.97
2022-10-05T01:56:53.215Z,5.32
2022-10-05T01:59:36.578Z,5.25
2022-10-05T02:02:13.339Z,4.07
2022-10-05T02:05:04.923Z,4.68
2022-10-05T02:07:43.807Z,2.90
2022-10-05T02:10:25.320Z,5.45
2022-10-05T02:13:09.006Z,4.20
2022-10-05T02:15:43.658Z,5.18
2022-10-05T02:18:23.501Z,2.75
2022-10-05T02:20:56.617Z,4.15
2022-10-05T02:23:32.569Z,6.03
2022-10-05T02:26:10.216Z,3.25
2022-10-05T02:28:46.568Z,4.72
2022-10-05T02:31:20.557Z,6.03
2022-10-05T02:33:54.642Z,3.50
2022-10-05T02:36:33.162Z,4.57
2022-10-05T02:39:10.775Z,4.32
2022-10-05T02:41:50.668Z,5.57
2022-10-05T02:44:32.384Z,3.95
2022-10-05T02:47:17.159Z,4.65
2022-10-05T02:50:38.525Z,4.50
2022-10-05T02:53:15.768Z,4.90
2022-10-05T02:56:02.951Z,6.95
2022-10-05T02:58:45.869Z,7.03
2022-10-05T03:01:23.767Z,6.45
2022-10-05T03:04:04.244Z,6.20
2022-10-05T03:06:54.133Z,4.75
2022-10-05T03:09:30.329Z,7.40
2022-10-05T03:12:18.928Z,7.35
2022-10-05T03:15:04.734Z,6.70
2022-10-05T03:17:48.148Z,6.63
2022-10-05T03:20:32.965Z,6.35
2022-10-05T03:23:09.635Z,4.88
2022-10-05T03:26:04.262Z,7.00
2022-10-05T03:28:49.240Z,6.03
2022-10-05T03:31:28.764Z,6.22
2022-10-05T03:34:09.560Z,6.32
2022-10-05T03:36:45.498Z,5.25
2022-10-05T03:39:24.433Z,4.82
2022-10-05T03:42:08.572Z,4.78
2022-10-05T03:44:53.860Z,6.03
2022-10-05T03:47:46.599Z,5.60
2022-10-05T03:50:34.292Z,6.82
2022-10-05T03:53:18.000Z,6.63
2022-10-05T03:55:52.123Z,5.97
2022-10-05T03:58:27.416Z,7.53
2022-10-05T04:01:05.252Z,7.00
2022-10-05T04:03:37.878Z,8.52
2022-10-05T04:06:17.011Z,5.85
2022-10-05T04:08:51.974Z,8.02
2022-10-05T04:11:29.218Z,5.60
2022-10-05T04:14:09.079Z,8.27
2022-10-05T04:16:45.682Z,6.05
2022-10-05T04:19:23.492Z,5.07
2022-10-05T04:22:05.915Z,10.88
2022-10-05T04:24:43.379Z,4.88
2022-10-05T04:27:20.148Z,6.50
2022-10-05T04:29:59.175Z,6.10
2022-10-05T04:32:39.903Z,6.93
2022-10-05T04:35:45.608Z,6.15
2022-10-05T04:38:38.888Z,6.15
2022-10-05T04:41:25.264Z,6.57
2022-10-05T04:44:13.388Z,13.68
2022-10-05T04:47:05.926Z,9.27
2022-10-05T04:50:02.971Z,8.10
2022-10-05T04:52:45.536Z,7.63
2022-10-05T04:55:23.433Z,9.80
2022-10-05T04:57:58.853Z,7.90
2022-10-05T05:00:33.193Z,9.48
2022-10-05T05:03:30.623Z,7.05
2022-10-05T05:06:17.477Z,11.55
2022-10-05T05:09:07.460Z,7.95
2022-10-05T05:12:04.128Z,7.53
2022-10-05T05:15:15.086Z,8.25
2022-10-05T05:17:56.848Z,8.50
2022-10-05T05:28:34.878Z,7.97
2022-10-05T05:31:57.459Z,7.78
2022-10-05T05:35:15.884Z,11.85
2022-10-05T05:38:02.878Z,7.20
2022-10-05T05:40:44.528Z,7.13
2022-10-05T05:43:38.320Z,10.75
2022-10-05T05:46:15.290Z,8.32
2022-10-05T06:14:44.268Z,8.68
2022-10-05T06:27:37.918Z,6.53
2022-10-05T06:30:11.743Z,7.85
2022-10-05T06:32:58.190Z,6.93
2022-10-05T06:35:55.613Z,6.03
2022-10-05T06:39:28.565Z,3.45
2022-10-05T06:42:39.618Z,3.65
2022-10-05T06:45:43.951Z,7.10
2022-10-05T06:49:03.784Z,9.02
2022-10-05T06:51:40.091Z,8.95
2022-10-05T06:54:24.211Z,12.00
2022-10-05T06:57:01.647Z,7.63
2022-10-05T06:59:40.652Z,6.20
2022-10-05T07:02:30.609Z,8.80
2022-10-05T07:05:43.616Z,7.55
2022-10-05T07:08:14.940Z,6.80
2022-10-05T07:10:52.480Z,6.20
2022-10-05T07:14:02.093Z,5.75
2022-10-05T07:16:42.795Z,7.85
2022-10-05T07:19:52.497Z,5.90
2022-10-05T07:33:35.653Z,4.15
2022-10-05T07:36:38.171Z,5.93
2022-10-05T07:39:20.188Z,4.65
2022-10-05T07:42:10.406Z,5.47
2022-10-05T07:45:13.681Z,5.50
2022-10-05T07:59:00.285Z,7.57
2022-10-05T08:01:56.227Z,5.15
2022-10-05T08:04:50.384Z,5.63
2022-10-05T08:07:51.162Z,6.55
2022-10-05T08:10:45.505Z,5.28
2022-10-05T08:13:22.344Z,4.22
2022-10-05T08:16:08.226Z,6.15
2022-10-05T08:18:56.233Z,4.93
2022-10-05T08:21:34.294Z,6.30
2022-10-05T08:24:14.424Z,5.53
2022-10-05T08:26:59.930Z,4.85
2022-10-05T08:29:43.625Z,5.22
2022-10-05T08:37:26.172Z,4.05
2022-10-05T10:23:47.522Z,2.65
2022-10-05T10:30:45.192Z,4.93
2022-10-05T10:33:53.096Z,4.78
2022-10-05T10:36:34.489Z,2.75
2022-10-05T10:39:09.144Z,3.05
2022-10-05T10:42:13.402Z,2.13
2022-10-05T10:45:00.543Z,5.05
2022-10-05T10:47:54.419Z,3.10
2022-10-05T10:50:49.900Z,2.83
2022-10-05T10:53:57.645Z,3.33
2022-10-05T10:56:47.804Z,5.20
2022-10-05T11:00:02.059Z,3.75
2022-10-05T11:02:55.990Z,2.30
2022-10-05T11:06:08.712Z,2.70
2022-10-05T11:09:09.647Z,3.42
2022-10-05T11:12:09.064Z,2.08
2022-10-05T11:15:00.013Z,3.75
2022-10-05T11:17:58.263Z,2.45
2022-10-05T11:21:05.594Z,5.22
2022-10-05T11:24:09.719Z,3.58
2022-10-05T11:27:10.988Z,4.07
2022-10-05T11:30:21.567Z,4.95
2022-10-05T11:33:30.539Z,5.18
2022-10-05T11:36:35.834Z,3.97
2022-10-05T11:39:30.334Z,3.40
2022-10-05T11:42:33.472Z,6.22
2022-10-05T11:45:24.097Z,4.60
2022-10-05T11:48:17.382Z,7.07
2022-10-05T11:50:58.545Z,4.18
2022-10-05T11:53:32.753Z,3.53
2022-10-05T11:56:09.609Z,3.85
2022-10-05T11:58:49.523Z,5.55
2022-10-05T12:01:27.250Z,3.83
2022-10-05T12:04:07.084Z,4.00
2022-10-05T12:07:02.855Z,4.10
2022-10-05T12:10:03.138Z,3.53
2022-10-05T12:12:37.799Z,2.78
2022-10-05T12:15:20.030Z,3.60
2022-10-05T12:17:52.192Z,3.60
2022-10-05T12:20:25.305Z,2.70
2022-10-05T12:22:59.017Z,4.07
2022-10-05T12:25:31.758Z,4.32
2022-10-05T12:28:04.999Z,2.22
2022-10-05T12:31:03.089Z,1.85
2022-10-05T12:33:38.675Z,1.95
2022-10-05T12:36:15.556Z,3.15
2022-10-05T12:38:50.004Z,1.98
2022-10-05T12:41:29.585Z,1.88
2022-10-05T12:44:11.426Z,1.45
2022-10-05T12:46:53.768Z,1.27
2022-10-05T12:49:56.852Z,2.33
2022-10-05T12:52:48.508Z,2.17
2022-10-05T12:55:26.107Z,1.42
2022-10-05T12:58:05.457Z,1.05
2022-10-05T13:00:37.101Z,5.20
2022-10-05T13:03:19.226Z,4.85
2022-10-05T13:05:56.938Z,1.70
2022-10-05T13:08:37.874Z,2.40
2022-10-05T13:11:15.183Z,2.00
2022-10-05T13:13:56.654Z,3.53
2022-10-05T13:16:33.356Z,2.90
2022-10-05T13:19:26.500Z,1.77
2022-10-05T13:22:17.379Z,2.65
2022-10-05T13:24:59.485Z,1.95
2022-10-05T13:27:32.967Z,1.27
2022-10-05T13:30:06.658Z,1.95
2022-10-05T13:32:42.218Z,1.90
2022-10-05T13:35:29.990Z,1.23
2022-10-05T13:38:18.233Z,1.10
2022-10-05T13:40:55.068Z,2.85
2022-10-05T13:46:12.993Z,1.35
2022-10-05T13:49:01.936Z,1.20
2022-10-05T13:51:40.961Z,1.88
2022-10-05T13:54:18.672Z,1.05
2022-10-05T13:56:54.851Z,1.20
2022-10-05T13:59:31.772Z,0.68
2022-10-05T14:02:03.302Z,1.42
2022-10-05T14:04:44.631Z,2.70
2022-10-05T14:07:28.598Z,1.30
2022-10-05T14:09:56.699Z,1.58
2022-10-05T14:12:25.402Z,2.03
2022-10-05T14:14:57.131Z,2.13
2022-10-05T14:17:46.143Z,4.68
2022-10-05T14:20:24.403Z,3.33
2022-10-05T14:23:00.853Z,2.75
2022-10-05T14:25:29.726Z,3.88
2022-10-05T14:28:04.775Z,1.45
2022-10-05T14:30:35.239Z,0.73
2022-10-05T14:33:17.090Z,3.47
2022-10-05T14:35:49.216Z,2.08
2022-10-05T14:38:25.712Z,1.35
2022-10-05T14:41:15.944Z,1.05
2022-10-05T14:43:54.493Z,1.27
2022-10-05T14:46:27.860Z,1.60
2022-10-05T14:49:21.020Z,5.53
2022-10-05T14:51:49.697Z,9.00
2022-10-05T14:54:28.585Z,5.60
2022-10-05T14:57:06.531Z,6.50
2022-10-05T15:00:00.384Z,4.18
2022-10-05T15:02:53.764Z,1.48
2022-10-05T15:05:31.327Z,2.75
2022-10-05T15:08:10.958Z,4.40
2022-10-05T15:10:44.111Z,3.60
2022-10-05T15:13:17.133Z,5.78
2022-10-05T15:15:52.077Z,2.25
2022-10-05T15:18:37.051Z,0.85
2022-10-05T15:21:24.143Z,1.10
2022-10-05T15:23:57.638Z,1.45
2022-10-05T15:26:41.871Z,2.90
2022-10-05T15:29:26.097Z,2.30
2022-10-05T15:32:03.847Z,1.75
2022-10-05T15:34:40.507Z,4.05
2022-10-05T15:37:19.633Z,1.00
2022-10-05T15:39:53.796Z,3.70
2022-10-05T15:42:34.942Z,2.80
2022-10-05T15:45:15.293Z,0.60
2022-10-05T15:47:52.238Z,1.98
2022-10-05T15:50:25.205Z,1.98
2022-10-05T15:53:02.569Z,1.42
2022-10-05T15:55:44.001Z,2.75
2022-10-05T15:58:39.815Z,2.13
2022-10-05T16:01:13.523Z,0.88
2022-10-05T16:03:51.085Z,2.65
2022-10-05T16:07:01.846Z,1.10
2022-10-05T16:09:43.715Z,3.10
2022-10-05T16:12:25.939Z,1.83
2022-10-05T16:15:15.397Z,4.25
2022-10-05T16:18:05.132Z,3.28
2022-10-05T16:20:45.285Z,3.35
2022-10-05T16:23:44.957Z,3.92
2022-10-05T16:54:24.485Z,2.65
2022-10-05T16:57:17.221Z,3.22
2022-10-05T17:00:12.172Z,2.10
2022-10-05T17:09:10.365Z,1.33
2022-10-05T17:10:48.641Z,5.82
2022-10-05T17:13:55.495Z,3.53
2022-10-05T17:16:37.930Z,3.75
2022-10-05T17:19:45.516Z,3.25
2022-10-05T17:22:32.381Z,3.65
2022-10-05T17:25:12.818Z,3.58
2022-10-05T17:28:11.259Z,3.08
2022-10-05T17:31:04.938Z,6.20
2022-10-05T17:34:04.214Z,3.53
2022-10-05T17:36:47.944Z,5.50
2022-10-05T17:39:38.261Z,2.40
2022-10-05T17:42:42.196Z,2.85
2022-10-05T17:45:39.986Z,2.13
2022-10-05T17:48:12.277Z,3.60
2022-10-05T17:51:00.176Z,2.22
2022-10-05T17:58:21.465Z,4.47
2022-10-05T18:13:17.100Z,5.00
2022-10-05T18:19:26.069Z,5.28
2022-10-05T18:37:47.867Z,8.48
2022-10-05T18:41:50.579Z,5.85
2022-10-05T19:19:01.257Z,5.68
2022-10-05T19:22:02.679Z,3.38
2022-10-05T19:28:19.641Z,4.30
2022-10-05T19:38:48.431Z,5.53
2022-10-05T19:45:30.420Z,4.35
2022-10-05T19:48:19.285Z,3.03
2022-10-05T19:51:34.816Z,4.20
2022-10-05T19:54:43.539Z,2.88
2022-10-05T19:58:36.218Z,3.47
2022-10-05T20:00:48.322Z,3.05
2022-10-05T20:03:27.733Z,5.10
2022-10-05T20:05:57.557Z,3.67
2022-10-05T20:08:42.702Z,9.48
2022-10-05T20:11:17.156Z,3.03
2022-10-05T20:13:46.669Z,2.38
2022-10-05T20:16:48.067Z,3.40
2022-10-05T20:20:08.077Z,1.50
2022-10-05T20:22:42.263Z,4.88
2022-10-05T20:25:32.840Z,4.38
2022-10-05T20:28:04.323Z,2.78
2022-10-05T20:30:36.560Z,2.45
2022-10-05T20:33:11.670Z,4.55
2022-10-05T20:35:39.926Z,2.55
2022-10-05T20:38:08.464Z,1.80
2022-10-05T20:40:41.384Z,1.98
2022-10-05T20:43:14.918Z,4.82
2022-10-05T20:45:54.684Z,4.32
2022-10-05T20:48:30.748Z,3.72
2022-10-05T20:51:00.280Z,1.52
2022-10-05T20:53:38.275Z,3.80
2022-10-05T20:56:06.684Z,2.25
2022-10-05T20:58:36.292Z,8.80
2022-10-05T21:01:18.516Z,2.42
2022-10-05T21:03:48.624Z,4.03
2022-10-05T21:06:19.229Z,2.88
2022-10-05T21:08:54.498Z,1.98
2022-10-05T21:11:22.699Z,2.47
2022-10-05T21:13:53.656Z,2.67
2022-10-05T21:16:23.057Z,1.50
2022-10-05T21:18:51.316Z,3.75
2022-10-05T21:21:19.624Z,4.30
2022-10-05T21:23:48.337Z,3.08
2022-10-05T21:26:16.973Z,2.17
2022-10-05T21:28:45.160Z,3.17
2022-10-05T21:31:18.838Z,2.28
2022-10-05T21:33:58.952Z,3.00
2022-10-05T21:36:27.124Z,3.38
2022-10-05T21:38:59.047Z,2.17
2022-10-05T21:41:27.671Z,5.85
2022-10-05T21:44:02.007Z,2.90
2022-10-05T21:46:31.615Z,1.77
2022-10-05T21:48:59.701Z,2.30
2022-10-05T21:51:28.382Z,2.10
2022-10-05T21:54:02.994Z,3.55
2022-10-05T21:56:36.022Z,5.28
2022-10-05T21:59:08.309Z,4.50
2022-10-05T22:01:40.415Z,2.08
2022-10-05T22:04:11.684Z,3.35
2022-10-05T22:06:40.323Z,3.97
2022-10-05T22:09:09.961Z,2.70
2022-10-05T22:11:40.505Z,3.55
2022-10-05T22:14:09.212Z,3.72
2022-10-05T22:16:43.555Z,2.35
2022-10-05T22:19:19.033Z,3.58
2022-10-05T22:21:47.281Z,2.83
2022-10-05T22:24:15.394Z,3.35
2022-10-05T22:26:47.817Z,2.13
2022-10-05T22:29:19.942Z,1.52
2022-10-05T22:31:49.729Z,3.15
2022-10-05T22:34:19.097Z,1.92
2022-10-05T22:36:51.315Z,4.18
2022-10-05T22:39:20.210Z,2.05
2022-10-05T22:41:48.760Z,2.85
2022-10-05T22:44:17.055Z,3.45
2022-10-05T22:46:45.281Z,1.77
2022-10-05T22:49:14.789Z,5.30
2022-10-05T22:51:43.124Z,2.85
2022-10-05T22:54:11.451Z,2.05
2022-10-05T22:56:39.730Z,3.75
2022-10-05T22:59:08.335Z,3.25
2022-10-05T23:01:45.454Z,5.95
2022-10-05T23:04:17.805Z,3.03
2022-10-05T23:06:46.167Z,2.40
2022-10-05T23:09:14.486Z,3.13
2022-10-05T23:11:47.140Z,2.42
2022-10-05T23:14:19.774Z,2.97
2022-10-05T23:16:50.101Z,3.47
2022-10-05T23:19:19.791Z,3.22
2022-10-05T23:21:59.236Z,2.63
2022-10-05T23:24:34.064Z,2.65
2022-10-05T23:27:02.611Z,3.42
2022-10-05T23:29:33.749Z,3.10
2022-10-05T23:32:05.137Z,3.10
2022-10-05T23:34:41.954Z,3.72
2022-10-05T23:37:12.337Z,4.22
2022-10-05T23:39:45.336Z,5.95
2022-10-05T23:42:18.865Z,6.53
2022-10-05T23:44:48.942Z,2.40
2022-10-05T23:47:18.605Z,3.22
2022-10-05T23:49:48.714Z,4.82
2022-10-05T23:52:24.814Z,4.28
2022-10-05T23:54:57.085Z,2.35
2022-10-05T23:57:44.520Z,4.15
